createdAt,value
2019-04-05T00:00:12.453Z,44.70
2019-04-05T00:01:12.449Z,45.00
2019-04-05T00:02:12.427Z,45.10
2019-04-05T00:03:12.414Z,45.10
2019-04-05T00:04:12.404Z,45.20
2019-04-05T00:05:12.395Z,44.70
2019-04-05T00:06:12.394Z,45.39
2019-04-05T00:07:12.373Z,44.70
2019-04-05T00:08:12.361Z,44.70
2019-04-05T00:09:12.352Z,44.70
2019-04-05T00:10:12.349Z,45.41
2019-04-05T00:11:12.336Z,44.80
2019-04-05T00:12:12.320Z,44.80
2019-04-05T00:13:12.307Z,45.51
2019-04-05T00:14:12.298Z,45.51
2019-04-05T00:15:15.585Z,44.80
2019-04-05T00:16:12.281Z,45.71
2019-04-05T00:17:12.264Z,45.20
2019-04-05T00:18:12.250Z,45.31
2019-04-05T00:19:12.241Z,45.61
2019-04-05T00:20:12.232Z,45.81
2019-04-05T00:21:12.227Z,45.51
2019-04-05T00:22:12.208Z,45.51
2019-04-05T00:23:12.196Z,45.20
2019-04-05T00:24:12.186Z,45.73
2019-04-05T00:25:12.177Z,45.83
2019-04-05T00:26:12.172Z,45.61
2019-04-05T00:27:12.153Z,45.41
2019-04-05T00:28:12.142Z,45.71
2019-04-05T00:29:12.131Z,45.51
2019-04-05T00:30:12.120Z,45.23
2019-04-05T00:31:12.118Z,45.73
2019-04-05T00:32:12.098Z,45.33
2019-04-05T00:33:12.087Z,45.63
2019-04-05T00:34:12.074Z,45.63
2019-04-05T00:35:12.063Z,46.04
2019-04-05T00:36:12.065Z,46.24
2019-04-05T00:37:12.044Z,46.14
2019-04-05T00:38:12.032Z,46.14
2019-04-05T00:39:12.021Z,46.24
2019-04-05T00:40:12.011Z,45.94
2019-04-05T00:41:12.031Z,45.86
2019-04-05T00:42:11.988Z,46.34
2019-04-05T00:43:11.978Z,45.73
2019-04-05T00:44:11.967Z,46.24
2019-04-05T00:45:11.957Z,46.14
2019-04-05T00:46:11.964Z,46.54
2019-04-05T00:47:11.944Z,45.96
2019-04-05T00:48:11.923Z,46.67
2019-04-05T00:49:11.911Z,46.14
2019-04-05T00:50:11.903Z,46.16
2019-04-05T00:51:11.889Z,46.06
2019-04-05T00:52:11.889Z,45.96
2019-04-05T00:53:11.867Z,46.67
2019-04-05T00:54:11.856Z,46.26
2019-04-05T00:55:11.849Z,45.96
2019-04-05T00:56:11.836Z,45.75
2019-04-05T00:57:11.837Z,46.06
2019-04-05T00:58:11.813Z,46.06
2019-04-05T00:59:11.803Z,46.06
2019-04-05T01:00:11.791Z,46.06
2019-04-05T01:01:11.781Z,46.36
2019-04-05T01:02:11.779Z,45.57
2019-04-05T01:03:13.199Z,46.46
2019-04-05T01:04:11.748Z,45.87
2019-04-05T01:05:11.737Z,45.87
2019-04-05T01:06:11.728Z,45.96
2019-04-05T01:07:11.721Z,46.56
2019-04-05T01:08:11.703Z,46.67
2019-04-05T01:09:11.694Z,46.16
2019-04-05T01:10:11.681Z,46.38
2019-04-05T01:11:11.669Z,46.79
2019-04-05T01:12:11.666Z,46.38
2019-04-05T01:13:11.651Z,46.99
2019-04-05T01:14:11.636Z,46.38
2019-04-05T01:15:11.626Z,46.28
2019-04-05T01:16:11.613Z,46.28
2019-04-05T01:17:24.168Z,47.19
2019-04-05T01:18:12.591Z,47.30
2019-04-05T01:19:11.583Z,46.89
2019-04-05T01:20:11.586Z,47.09
2019-04-05T01:21:11.560Z,47.09
2019-04-05T01:22:11.556Z,46.89
2019-04-05T01:23:11.545Z,47.60
2019-04-05T01:24:11.530Z,46.89
2019-04-05T01:25:11.513Z,46.99
2019-04-05T01:26:11.505Z,47.50
2019-04-05T01:27:11.503Z,46.79
2019-04-05T01:28:11.484Z,46.99
2019-04-05T01:29:11.470Z,47.60
2019-04-05T01:30:11.461Z,46.79
2019-04-05T01:31:11.449Z,46.79
2019-04-05T01:32:11.447Z,46.99
2019-04-05T01:33:11.428Z,46.89
2019-04-05T01:34:11.417Z,47.19
2019-04-05T01:35:11.407Z,47.60
2019-04-05T01:36:11.396Z,46.89
2019-04-05T01:37:11.392Z,47.50
2019-04-05T01:38:11.373Z,47.09
2019-04-05T01:39:11.360Z,47.09
2019-04-05T01:40:11.353Z,46.89
2019-04-05T01:41:11.340Z,46.81
2019-04-05T01:42:11.346Z,46.91
2019-04-05T01:43:11.317Z,47.52
2019-04-05T01:44:11.307Z,47.62
2019-04-05T01:45:11.298Z,47.52
2019-04-05T01:46:11.308Z,48.13
2019-04-05T01:47:11.281Z,47.62
2019-04-05T01:48:11.265Z,47.52
2019-04-05T01:49:11.250Z,47.62
2019-04-05T01:50:11.242Z,47.62
2019-04-05T01:51:11.227Z,47.42
2019-04-05T01:52:11.228Z,47.31
2019-04-05T01:53:11.208Z,47.14
2019-04-05T01:54:11.197Z,47.11
2019-04-05T01:55:11.184Z,47.31
2019-04-05T01:56:11.173Z,47.42
2019-04-05T01:57:11.172Z,47.52
2019-04-05T01:58:11.150Z,47.52
2019-04-05T01:59:11.142Z,47.03
2019-04-05T02:00:11.129Z,47.34
2019-04-05T02:01:11.118Z,47.44
2019-04-05T02:02:11.117Z,47.14
2019-04-05T02:03:11.898Z,47.44
2019-04-05T02:04:11.085Z,48.05
2019-04-05T02:05:11.076Z,47.85
2019-04-05T02:06:11.063Z,47.54
2019-04-05T02:07:11.061Z,48.33
2019-04-05T02:08:11.041Z,48.15
2019-04-05T02:09:11.037Z,48.05
2019-04-05T02:10:11.018Z,48.05
2019-04-05T02:11:11.008Z,48.15
2019-04-05T02:12:11.066Z,47.54
2019-04-05T02:13:10.987Z,48.15
2019-04-05T02:14:10.975Z,48.15
2019-04-05T02:15:10.967Z,48.46
2019-04-05T02:16:10.952Z,47.95
2019-04-05T02:17:10.951Z,47.34
2019-04-05T02:18:10.950Z,47.75
2019-04-05T02:19:10.923Z,48.18
2019-04-05T02:20:10.915Z,48.27
2019-04-05T02:21:10.899Z,48.27
2019-04-05T02:22:10.896Z,47.97
2019-04-05T02:23:10.880Z,48.38
2019-04-05T02:24:10.864Z,48.58
2019-04-05T02:25:10.854Z,48.07
2019-04-05T02:26:10.845Z,48.18
2019-04-05T02:27:10.843Z,48.18
2019-04-05T02:28:10.820Z,48.27
2019-04-05T02:29:10.815Z,48.18
2019-04-05T02:30:10.801Z,48.07
2019-04-05T02:31:10.789Z,48.38
2019-04-05T02:32:10.787Z,48.27
2019-04-05T02:33:10.767Z,48.07
2019-04-05T02:34:10.756Z,48.48
2019-04-05T02:35:10.751Z,47.97
2019-04-05T02:36:10.746Z,47.87
2019-04-05T02:37:10.731Z,48.50
2019-04-05T02:38:10.713Z,48.50
2019-04-05T02:39:10.700Z,48.40
2019-04-05T02:40:10.689Z,48.50
2019-04-05T02:41:10.679Z,48.71
2019-04-05T02:42:10.676Z,49.01
2019-04-05T02:43:10.667Z,49.01
2019-04-05T02:44:10.646Z,49.01
2019-04-05T02:45:10.636Z,48.71
2019-04-05T02:46:22.579Z,49.11
2019-04-05T02:47:11.622Z,48.50
2019-04-05T02:48:10.600Z,48.50
2019-04-05T02:49:10.590Z,48.91
2019-04-05T02:50:10.585Z,48.91
2019-04-05T02:51:10.568Z,49.01
2019-04-05T02:52:10.565Z,48.30
2019-04-05T02:53:10.545Z,49.01
2019-04-05T02:54:10.536Z,48.80
2019-04-05T02:55:10.523Z,48.50
2019-04-05T02:56:10.519Z,48.40
2019-04-05T02:57:10.514Z,48.50
2019-04-05T02:58:10.492Z,48.71
2019-04-05T02:59:10.478Z,48.91
2019-04-05T03:00:10.468Z,49.31
2019-04-05T03:01:10.458Z,48.71
2019-04-05T03:02:10.461Z,48.91
2019-04-05T03:03:10.438Z,48.91
2019-04-05T03:04:10.462Z,48.80
2019-04-05T03:05:10.415Z,48.71
2019-04-05T03:06:10.416Z,49.01
2019-04-05T03:07:10.400Z,48.71
2019-04-05T03:08:10.380Z,48.91
2019-04-05T03:09:10.378Z,48.71
2019-04-05T03:10:10.358Z,48.80
2019-04-05T03:11:10.353Z,49.03
2019-04-05T03:12:10.344Z,48.72
2019-04-05T03:13:10.328Z,48.91
2019-04-05T03:14:10.316Z,49.31
2019-04-05T03:15:10.304Z,49.41
2019-04-05T03:16:10.300Z,48.80
2019-04-05T03:17:10.294Z,48.71
2019-04-05T03:18:10.269Z,49.13
2019-04-05T03:19:10.276Z,49.13
2019-04-05T03:20:10.256Z,49.13
2019-04-05T03:21:10.239Z,49.41
2019-04-05T03:22:10.244Z,49.44
2019-04-05T03:23:10.217Z,49.03
2019-04-05T03:24:10.208Z,48.93
2019-04-05T03:25:10.194Z,49.13
2019-04-05T03:26:10.181Z,49.13
2019-04-05T03:27:10.205Z,49.13
2019-04-05T03:28:10.162Z,49.44
2019-04-05T03:29:10.152Z,49.13
2019-04-05T03:30:10.145Z,48.72
2019-04-05T03:31:10.126Z,49.13
2019-04-05T03:32:10.131Z,49.74
2019-04-05T03:33:10.131Z,49.74
2019-04-05T03:34:10.098Z,50.35
2019-04-05T03:35:10.101Z,49.54
2019-04-05T03:36:10.074Z,48.93
2019-04-05T03:37:10.060Z,49.44
2019-04-05T03:38:10.086Z,49.54
2019-04-05T03:39:10.070Z,49.33
2019-04-05T03:40:10.028Z,49.23
2019-04-05T03:41:10.017Z,48.72
2019-04-05T03:42:10.007Z,49.74
2019-04-05T03:43:10.010Z,49.44
2019-04-05T03:44:09.982Z,48.83
2019-04-05T03:45:10.013Z,48.93
2019-04-05T03:46:09.972Z,49.05
2019-04-05T03:47:09.954Z,49.44
2019-04-05T03:48:09.950Z,49.95
2019-04-05T03:49:09.930Z,49.64
2019-04-05T03:50:09.920Z,49.95
2019-04-05T03:51:09.908Z,50.17
2019-04-05T03:52:09.897Z,49.97
2019-04-05T03:53:09.899Z,49.87
2019-04-05T03:54:09.887Z,49.76
2019-04-05T03:55:09.866Z,49.87
2019-04-05T03:56:09.851Z,49.97
2019-04-05T03:57:09.839Z,49.76
2019-04-05T03:58:09.839Z,50.17
2019-04-05T03:59:09.825Z,50.07
2019-04-05T04:00:09.808Z,49.97
2019-04-05T04:01:09.799Z,50.07
2019-04-05T04:02:09.785Z,49.97
2019-04-05T04:03:09.792Z,50.37
2019-04-05T04:04:09.770Z,50.07
2019-04-05T04:05:09.759Z,50.17
2019-04-05T04:06:09.740Z,49.89
2019-04-05T04:07:09.735Z,50.17
2019-04-05T04:08:09.791Z,50.17
2019-04-05T04:09:09.708Z,49.97
2019-04-05T04:10:09.697Z,50.09
2019-04-05T04:11:09.687Z,50.07
2019-04-05T04:12:09.677Z,50.09
2019-04-05T04:13:09.673Z,50.20
2019-04-05T04:14:09.655Z,50.17
2019-04-05T04:15:13.357Z,49.99
2019-04-05T04:16:09.632Z,50.58
2019-04-05T04:17:12.800Z,49.69
2019-04-05T04:18:09.619Z,49.99
2019-04-05T04:19:09.599Z,49.99
2019-04-05T04:20:09.588Z,50.20
2019-04-05T04:21:09.577Z,49.89
2019-04-05T04:22:09.570Z,50.09
2019-04-05T04:23:09.563Z,49.99
2019-04-05T04:24:09.547Z,49.79
2019-04-05T04:25:09.536Z,49.99
2019-04-05T04:26:09.524Z,49.89
2019-04-05T04:27:09.511Z,49.79
2019-04-05T04:28:09.508Z,49.69
2019-04-05T04:29:09.497Z,50.70
2019-04-05T04:30:09.479Z,50.70
2019-04-05T04:31:09.466Z,49.89
2019-04-05T04:32:09.457Z,49.79
2019-04-05T04:33:09.463Z,50.81
2019-04-05T04:34:09.435Z,50.60
2019-04-05T04:35:09.427Z,50.62
2019-04-05T04:36:12.904Z,50.70
2019-04-05T04:37:09.402Z,50.70
2019-04-05T04:38:09.404Z,50.73
2019-04-05T04:39:09.384Z,50.90
2019-04-05T04:40:09.369Z,51.44
2019-04-05T04:41:09.358Z,51.34
2019-04-05T04:42:09.347Z,51.03
2019-04-05T04:43:09.363Z,51.44
2019-04-05T04:44:09.324Z,51.34
2019-04-05T04:45:12.493Z,50.93
2019-04-05T04:46:09.304Z,50.73
2019-04-05T04:47:09.292Z,51.34
2019-04-05T04:48:09.281Z,50.73
2019-04-05T04:49:09.283Z,51.44
2019-04-05T04:50:09.268Z,51.23
2019-04-05T04:51:09.247Z,50.73
2019-04-05T04:52:09.239Z,50.62
2019-04-05T04:53:09.227Z,50.73
2019-04-05T04:54:09.224Z,50.73
2019-04-05T04:55:09.208Z,50.73
2019-04-05T04:56:09.195Z,50.83
2019-04-05T04:57:09.183Z,50.73
2019-04-05T04:58:09.172Z,50.93
2019-04-05T04:59:09.178Z,50.62
2019-04-05T05:00:09.155Z,50.62
2019-04-05T05:01:09.138Z,50.73
2019-04-05T05:02:09.128Z,50.93
2019-04-05T05:03:09.116Z,50.73
2019-04-05T05:04:09.117Z,52.25
2019-04-05T05:05:09.095Z,51.54
2019-04-05T05:06:09.094Z,51.26
2019-04-05T05:07:09.073Z,50.73
2019-04-05T05:08:09.068Z,51.23
2019-04-05T05:09:09.066Z,51.23
2019-04-05T05:10:09.041Z,51.54
2019-04-05T05:11:14.816Z,51.44
2019-04-05T05:12:10.018Z,50.62
2019-04-05T05:13:09.007Z,50.83
2019-04-05T05:14:09.007Z,51.54
2019-04-05T05:15:08.986Z,51.03
2019-04-05T05:16:08.979Z,50.83
2019-04-05T05:17:08.963Z,50.52
2019-04-05T05:18:08.955Z,51.03
2019-04-05T05:19:08.953Z,51.03
2019-04-05T05:20:08.931Z,50.62
2019-04-05T05:21:08.919Z,51.34
2019-04-05T05:22:08.909Z,50.93
2019-04-05T05:23:08.901Z,50.62
2019-04-05T05:24:08.898Z,51.44
2019-04-05T05:25:08.876Z,50.62
2019-04-05T05:26:08.865Z,51.54
2019-04-05T05:27:08.858Z,51.54
2019-04-05T05:28:08.842Z,51.21
2019-04-05T05:29:08.842Z,50.70
2019-04-05T05:30:08.821Z,50.70
2019-04-05T05:31:08.810Z,51.21
2019-04-05T05:32:09.772Z,51.21
2019-04-05T05:33:08.789Z,51.01
2019-04-05T05:34:08.790Z,50.90
2019-04-05T05:35:08.765Z,50.70
2019-04-05T05:36:10.483Z,51.01
2019-04-05T05:37:08.744Z,50.70
2019-04-05T05:38:08.756Z,50.90
2019-04-05T05:39:08.738Z,50.90
2019-04-05T05:40:08.712Z,50.81
2019-04-05T05:41:08.745Z,50.81
2019-04-05T05:42:08.686Z,50.81
2019-04-05T05:43:08.680Z,50.81
2019-04-05T05:44:08.674Z,50.81
2019-04-05T05:45:08.654Z,50.81
2019-04-05T05:46:08.644Z,51.09
2019-04-05T05:47:08.635Z,50.27
2019-04-05T05:48:08.622Z,50.48
2019-04-05T05:49:08.623Z,51.29
2019-04-05T05:50:08.601Z,50.78
2019-04-05T05:51:08.592Z,50.37
2019-04-05T05:52:08.577Z,50.45
2019-04-05T05:53:08.570Z,50.56
2019-04-05T05:54:08.567Z,51.06
2019-04-05T05:55:08.543Z,50.88
2019-04-05T05:56:08.534Z,50.68
2019-04-05T05:57:08.522Z,49.95
2019-04-05T05:58:08.516Z,50.35
2019-04-05T05:59:08.510Z,50.56
2019-04-05T06:00:08.493Z,49.92
2019-04-05T06:01:08.480Z,50.12
2019-04-05T06:02:08.473Z,49.72
2019-04-05T06:03:10.824Z,50.31
2019-04-05T06:04:08.459Z,48.63
2019-04-05T06:05:08.435Z,47.09
2019-04-05T06:06:08.425Z,46.97
2019-04-05T06:07:08.414Z,46.32
2019-04-05T06:08:08.403Z,45.51
2019-04-05T06:09:08.400Z,44.98
2019-04-05T06:10:08.380Z,44.76
2019-04-05T06:11:08.373Z,44.84
2019-04-05T06:12:08.361Z,44.01
2019-04-05T06:13:08.349Z,44.19
2019-04-05T06:14:08.345Z,43.79
2019-04-05T06:15:08.324Z,42.35
2019-04-05T06:16:08.316Z,42.76
2019-04-05T06:17:08.308Z,42.13
2019-04-05T06:18:11.993Z,41.51
2019-04-05T06:19:08.290Z,41.71
2019-04-05T06:20:08.271Z,42.32
2019-04-05T06:21:08.261Z,41.59
2019-04-05T06:22:08.248Z,41.09
2019-04-05T06:23:08.236Z,41.71
2019-04-05T06:24:08.488Z,42.01
2019-04-05T06:25:08.229Z,42.76
2019-04-05T06:26:08.206Z,42.98
2019-04-05T06:27:08.194Z,43.18
2019-04-05T06:28:08.181Z,42.98
2019-04-05T06:29:08.185Z,44.01
2019-04-05T06:30:08.161Z,43.93
2019-04-05T06:31:08.161Z,44.54
2019-04-05T06:32:08.139Z,44.35
2019-04-05T06:33:08.130Z,44.76
2019-04-05T06:34:08.125Z,45.89
2019-04-05T06:35:08.105Z,46.20
2019-04-05T06:36:08.094Z,46.32
2019-04-05T06:37:08.082Z,46.42
2019-04-05T06:38:08.073Z,46.04
2019-04-05T06:39:08.071Z,47.75
2019-04-05T06:40:08.048Z,47.05
2019-04-05T06:41:08.038Z,47.15
2019-04-05T06:42:08.029Z,47.35
2019-04-05T06:43:08.019Z,47.47
2019-04-05T06:44:08.016Z,47.78
2019-04-05T06:45:07.995Z,47.38
2019-04-05T06:46:07.986Z,47.27
2019-04-05T06:47:07.972Z,47.88
2019-04-05T06:48:18.441Z,48.31
2019-04-05T06:49:08.960Z,48.11
2019-04-05T06:50:07.939Z,48.82
2019-04-05T06:51:07.930Z,48.18
2019-04-05T06:52:07.918Z,48.91
2019-04-05T06:53:07.906Z,49.22
2019-04-05T06:54:07.906Z,49.22
2019-04-05T06:55:07.884Z,48.91
2019-04-05T06:56:07.881Z,49.52
2019-04-05T06:57:07.906Z,48.82
2019-04-05T06:58:10.302Z,49.52
2019-04-05T06:59:07.851Z,49.02
2019-04-05T07:00:07.833Z,49.10
2019-04-05T07:01:07.819Z,49.32
2019-04-05T07:02:07.808Z,49.52
2019-04-05T07:03:07.797Z,49.52
2019-04-05T07:04:07.796Z,50.21
2019-04-05T07:05:07.774Z,49.19
2019-04-05T07:06:07.799Z,49.19
2019-04-05T07:07:07.755Z,48.99
2019-04-05T07:08:07.749Z,50.34
2019-04-05T07:09:07.765Z,49.73
2019-04-05T07:10:07.722Z,49.93
2019-04-05T07:11:07.716Z,49.73
2019-04-05T07:12:07.697Z,49.93
2019-04-05T07:13:07.797Z,50.01
2019-04-05T07:14:07.676Z,49.90
2019-04-05T07:15:07.679Z,50.11
2019-04-05T07:16:07.654Z,49.60
2019-04-05T07:17:07.649Z,49.70
2019-04-05T07:18:07.633Z,50.11
2019-04-05T07:19:07.625Z,49.60
2019-04-05T07:20:07.621Z,49.70
2019-04-05T07:21:07.605Z,49.80
2019-04-05T07:22:07.593Z,49.70
2019-04-05T07:23:07.578Z,49.70
2019-04-05T07:24:07.571Z,49.70
2019-04-05T07:25:07.569Z,50.41
2019-04-05T07:26:07.566Z,50.41
2019-04-05T07:27:07.537Z,50.61
2019-04-05T07:28:07.521Z,51.02
2019-04-05T07:29:07.511Z,50.71
2019-04-05T07:30:07.551Z,50.61
2019-04-05T07:31:07.491Z,51.42
2019-04-05T07:32:07.478Z,52.26
2019-04-05T07:33:07.468Z,51.55
2019-04-05T07:34:07.460Z,51.75
2019-04-05T07:35:07.459Z,51.73
2019-04-05T07:36:07.437Z,51.83
2019-04-05T07:37:07.423Z,52.03
2019-04-05T07:38:09.644Z,52.13
2019-04-05T07:39:07.403Z,50.61
2019-04-05T07:40:07.403Z,50.92
2019-04-05T07:41:07.385Z,51.73
2019-04-05T07:42:07.370Z,51.73
2019-04-05T07:43:07.359Z,51.62
2019-04-05T07:44:07.351Z,51.62
2019-04-05T07:45:07.347Z,52.03
2019-04-05T07:46:07.325Z,51.93
2019-04-05T07:47:07.316Z,51.50
2019-04-05T07:48:07.305Z,50.49
2019-04-05T07:49:07.306Z,50.67
2019-04-05T07:50:07.293Z,50.57
2019-04-05T07:51:07.270Z,50.87
2019-04-05T07:52:07.261Z,50.38
2019-04-05T07:53:07.250Z,51.86
2019-04-05T07:54:07.242Z,53.60
2019-04-05T07:55:07.234Z,54.03
2019-04-05T07:56:07.215Z,54.46
2019-04-05T07:57:07.206Z,55.83
2019-04-05T07:58:07.194Z,57.18
2019-04-05T07:59:07.183Z,57.54
2019-04-05T08:00:07.185Z,58.45
2019-04-05T08:01:07.164Z,59.30
2019-04-05T08:02:07.151Z,59.50
2019-04-05T08:03:07.139Z,60.44
2019-04-05T08:04:07.141Z,60.57
2019-04-05T08:05:07.129Z,60.98
2019-04-05T08:06:07.108Z,61.18
2019-04-05T08:07:07.107Z,61.79
2019-04-05T08:08:07.085Z,61.59
2019-04-05T08:09:07.080Z,63.04
2019-04-05T08:10:07.075Z,63.45
2019-04-05T08:11:07.052Z,63.15
2019-04-05T08:12:07.041Z,63.28
2019-04-05T08:13:07.029Z,63.35
2019-04-05T08:14:07.019Z,63.24
2019-04-05T08:15:07.017Z,63.24
2019-04-05T08:16:06.996Z,64.09
2019-04-05T08:17:06.987Z,63.68
2019-04-05T08:18:06.998Z,64.32
2019-04-05T08:19:06.962Z,65.04
2019-04-05T08:20:06.964Z,64.97
2019-04-05T08:21:06.947Z,65.48
2019-04-05T08:22:06.931Z,65.28
2019-04-05T08:23:06.939Z,65.81
2019-04-05T08:24:06.911Z,66.33
2019-04-05T08:25:06.907Z,66.60
2019-04-05T08:26:06.886Z,66.70
2019-04-05T08:27:06.877Z,66.22
2019-04-05T08:28:06.895Z,67.24
2019-04-05T08:29:06.856Z,67.14
2019-04-05T08:30:06.853Z,68.16
2019-04-05T08:31:10.504Z,67.45
2019-04-05T08:32:14.468Z,67.65
2019-04-05T08:33:07.813Z,67.85
2019-04-05T08:34:06.800Z,67.79
2019-04-05T08:35:06.797Z,67.99
2019-04-05T08:36:06.780Z,68.91
2019-04-05T08:37:06.770Z,69.15
2019-04-05T08:38:06.763Z,69.04
2019-04-05T08:39:06.745Z,69.15
2019-04-05T08:40:06.744Z,69.04
2019-04-05T08:41:06.721Z,69.65
2019-04-05T08:42:06.735Z,69.35
2019-04-05T08:43:06.699Z,69.45
2019-04-05T08:44:06.692Z,69.35
2019-04-05T08:45:06.686Z,69.04
2019-04-05T08:46:06.674Z,69.56
2019-04-05T08:47:06.656Z,70.06
2019-04-05T08:48:06.646Z,70.06
2019-04-05T08:49:11.123Z,69.86
2019-04-05T08:50:06.636Z,69.96
2019-04-05T08:51:06.610Z,70.57
2019-04-05T08:52:06.608Z,69.76
2019-04-05T08:53:06.587Z,70.37
2019-04-05T08:54:06.576Z,69.96
2019-04-05T08:55:06.578Z,70.17
2019-04-05T08:56:06.554Z,70.57
2019-04-05T08:57:06.542Z,70.17
2019-04-05T08:58:06.536Z,69.35
2019-04-05T08:59:06.520Z,69.21
2019-04-05T09:00:06.519Z,69.21
2019-04-05T09:01:06.568Z,69.62
2019-04-05T09:02:06.511Z,69.42
2019-04-05T09:03:06.478Z,69.11
2019-04-05T09:04:06.467Z,69.96
2019-04-05T09:05:06.467Z,69.82
2019-04-05T09:06:06.451Z,69.42
2019-04-05T09:07:06.436Z,69.35
2019-04-05T09:08:06.421Z,69.73
2019-04-05T09:09:06.413Z,70.06
2019-04-05T09:10:06.408Z,69.52
2019-04-05T09:11:06.388Z,69.73
2019-04-05T09:12:06.377Z,70.17
2019-04-05T09:13:06.364Z,70.23
2019-04-05T09:14:06.357Z,70.03
2019-04-05T09:15:06.357Z,69.93
2019-04-05T09:16:06.333Z,70.44
2019-04-05T09:17:06.322Z,70.03
2019-04-05T09:18:06.313Z,70.23
2019-04-05T09:19:06.299Z,70.37
2019-04-05T09:20:06.302Z,70.54
2019-04-05T09:21:06.277Z,70.14
2019-04-05T09:22:06.267Z,70.23
2019-04-05T09:23:06.255Z,70.54
2019-04-05T09:24:06.245Z,70.23
2019-04-05T09:25:06.246Z,70.44
2019-04-05T09:26:06.224Z,70.23
2019-04-05T09:27:06.210Z,69.82
2019-04-05T09:28:06.203Z,69.93
2019-04-05T09:29:09.116Z,70.54
2019-04-05T09:30:06.186Z,70.75
2019-04-05T09:31:06.168Z,70.64
2019-04-05T09:32:06.160Z,70.98
2019-04-05T09:33:06.145Z,71.29
2019-04-05T09:34:06.136Z,71.50
2019-04-05T09:35:06.155Z,71.70
2019-04-05T09:36:06.120Z,71.59
2019-04-05T09:37:06.099Z,71.70
2019-04-05T09:38:06.093Z,71.91
2019-04-05T09:39:06.079Z,71.46
2019-04-05T09:40:06.068Z,71.70
2019-04-05T09:41:06.068Z,71.70
2019-04-05T09:42:06.047Z,71.46
2019-04-05T09:43:06.040Z,71.67
2019-04-05T09:44:06.029Z,71.46
2019-04-05T09:45:06.015Z,71.67
2019-04-05T09:46:06.015Z,71.39
2019-04-05T09:47:05.989Z,71.70
2019-04-05T09:48:05.985Z,71.80
2019-04-05T09:49:05.972Z,72.41
2019-04-05T09:50:05.958Z,72.62
2019-04-05T09:51:07.256Z,72.72
2019-04-05T09:52:05.935Z,72.72
2019-04-05T09:53:05.925Z,73.03
2019-04-05T09:54:05.914Z,72.31
2019-04-05T09:55:05.904Z,72.21
2019-04-05T09:56:05.902Z,72.82
2019-04-05T09:57:05.900Z,73.33
2019-04-05T09:58:05.868Z,72.72
2019-04-05T09:59:05.861Z,72.52
2019-04-05T10:00:05.849Z,72.11
2019-04-05T10:01:05.848Z,72.72
2019-04-05T10:02:05.828Z,72.72
2019-04-05T10:03:05.821Z,72.41
2019-04-05T10:04:05.806Z,72.82
2019-04-05T10:05:05.845Z,72.69
2019-04-05T10:06:05.792Z,72.72
2019-04-05T10:07:05.774Z,72.62
2019-04-05T10:08:05.760Z,73.23
2019-04-05T10:09:05.747Z,72.82
2019-04-05T10:10:05.738Z,72.58
2019-04-05T10:11:05.742Z,72.69
2019-04-05T10:12:05.719Z,72.48
2019-04-05T10:13:05.711Z,72.69
2019-04-05T10:14:05.693Z,72.89
2019-04-05T10:15:05.682Z,72.38
2019-04-05T10:16:05.680Z,72.69
2019-04-05T10:17:05.662Z,72.69
2019-04-05T10:18:05.652Z,72.48
2019-04-05T10:19:05.639Z,72.28
2019-04-05T10:20:05.629Z,72.17
2019-04-05T10:21:05.630Z,72.72
2019-04-05T10:22:05.608Z,72.89
2019-04-05T10:23:05.607Z,72.92
2019-04-05T10:24:05.586Z,73.71
2019-04-05T10:25:05.573Z,73.19
2019-04-05T10:26:05.570Z,73.13
2019-04-05T10:27:05.552Z,72.69
2019-04-05T10:28:05.541Z,72.99
2019-04-05T10:29:05.529Z,72.89
2019-04-05T10:30:05.521Z,72.69
2019-04-05T10:31:05.518Z,71.94
2019-04-05T10:32:05.497Z,72.55
2019-04-05T10:33:05.486Z,72.07
2019-04-05T10:34:05.474Z,72.24
2019-04-05T10:35:05.468Z,72.04
2019-04-05T10:36:05.492Z,72.14
2019-04-05T10:37:05.441Z,72.38
2019-04-05T10:38:05.428Z,72.38
2019-04-05T10:39:05.419Z,72.65
2019-04-05T10:40:05.413Z,72.86
2019-04-05T10:41:05.407Z,73.06
2019-04-05T10:42:05.395Z,72.55
2019-04-05T10:43:05.377Z,72.45
2019-04-05T10:44:05.365Z,73.36
2019-04-05T10:45:05.351Z,72.99
2019-04-05T10:46:05.354Z,73.16
2019-04-05T10:47:05.331Z,73.27
2019-04-05T10:48:05.320Z,73.27
2019-04-05T10:49:05.306Z,73.36
2019-04-05T10:50:05.297Z,73.16
2019-04-05T10:51:05.299Z,72.65
2019-04-05T10:52:05.276Z,72.75
2019-04-05T10:53:05.264Z,73.10
2019-04-05T10:54:05.251Z,72.55
2019-04-05T10:55:05.240Z,72.75
2019-04-05T10:56:05.238Z,72.86
2019-04-05T10:57:05.219Z,72.96
2019-04-05T10:58:05.207Z,72.55
2019-04-05T10:59:05.200Z,73.16
2019-04-05T11:00:05.287Z,73.06
2019-04-05T11:01:05.182Z,72.65
2019-04-05T11:02:05.165Z,72.86
2019-04-05T11:03:05.153Z,72.65
2019-04-05T11:04:05.142Z,72.75
2019-04-05T11:05:05.132Z,72.75
2019-04-05T11:06:05.135Z,72.52
2019-04-05T11:07:05.111Z,72.04
2019-04-05T11:08:05.098Z,72.24
2019-04-05T11:09:05.091Z,72.21
2019-04-05T11:10:05.075Z,72.14
2019-04-05T11:11:05.075Z,71.91
2019-04-05T11:12:05.054Z,71.91
2019-04-05T11:13:05.043Z,71.50
2019-04-05T11:14:13.525Z,71.39
2019-04-05T11:15:06.021Z,71.50
2019-04-05T11:16:05.020Z,71.50
2019-04-05T11:17:05.172Z,71.91
2019-04-05T11:18:04.994Z,71.80
2019-04-05T11:19:04.983Z,72.00
2019-04-05T11:20:14.927Z,71.50
2019-04-05T11:21:05.968Z,72.21
2019-04-05T11:22:04.944Z,72.11
2019-04-05T11:23:04.932Z,71.60
2019-04-05T11:24:04.924Z,70.98
2019-04-05T11:25:04.912Z,71.50
2019-04-05T11:26:04.922Z,71.29
2019-04-05T11:27:06.711Z,71.19
2019-04-05T11:28:04.876Z,71.15
2019-04-05T11:29:04.866Z,70.78
2019-04-05T11:30:04.855Z,70.65
2019-04-05T11:31:04.851Z,70.14
2019-04-05T11:32:04.834Z,70.24
2019-04-05T11:33:04.822Z,69.53
2019-04-05T11:34:04.812Z,69.19
2019-04-05T11:35:04.798Z,69.29
2019-04-05T11:36:04.812Z,69.70
2019-04-05T11:37:04.777Z,69.80
2019-04-05T11:38:04.765Z,69.39
2019-04-05T11:39:05.427Z,68.98
2019-04-05T11:40:04.744Z,69.29
2019-04-05T11:41:04.754Z,68.34
2019-04-05T11:42:04.726Z,68.34
2019-04-05T11:43:04.712Z,68.95
2019-04-05T11:44:04.698Z,68.85
2019-04-05T11:45:04.688Z,68.13
2019-04-05T11:46:04.690Z,67.52
2019-04-05T11:47:04.669Z,67.69
2019-04-05T11:48:04.660Z,67.49
2019-04-05T11:49:04.648Z,67.26
2019-04-05T11:50:04.632Z,67.19
2019-04-05T11:51:04.633Z,66.44
2019-04-05T11:52:04.621Z,66.85
2019-04-05T11:53:04.599Z,66.65
2019-04-05T11:54:04.593Z,66.21
2019-04-05T11:55:04.793Z,66.35
2019-04-05T11:56:14.616Z,65.43
2019-04-05T11:57:05.552Z,64.69
2019-04-05T11:58:04.542Z,64.99
2019-04-05T11:59:04.533Z,64.79
2019-04-05T12:00:04.528Z,65.19
2019-04-05T12:01:04.511Z,65.16
2019-04-05T12:02:04.510Z,64.76
2019-04-05T12:03:04.493Z,64.86
2019-04-05T12:04:04.487Z,64.65
2019-04-05T12:05:04.469Z,64.15
2019-04-05T12:06:04.457Z,64.96
2019-04-05T12:07:04.453Z,64.15
2019-04-05T12:08:04.433Z,64.25
2019-04-05T12:09:04.425Z,64.83
2019-04-05T12:10:04.413Z,64.55
2019-04-05T12:11:04.403Z,64.12
2019-04-05T12:12:04.403Z,63.71
2019-04-05T12:13:04.379Z,63.71
2019-04-05T12:14:04.369Z,63.71
2019-04-05T12:15:06.141Z,63.51
2019-04-05T12:16:06.000Z,63.51
2019-04-05T12:17:05.667Z,63.40
2019-04-05T12:18:04.634Z,63.60
2019-04-05T12:19:04.719Z,64.22
2019-04-05T12:20:04.307Z,63.71
2019-04-05T12:21:05.757Z,63.60
2019-04-05T12:22:05.300Z,64.22
2019-04-05T12:23:04.269Z,63.60
2019-04-05T12:24:04.261Z,64.42
2019-04-05T12:25:04.247Z,63.60
2019-04-05T12:26:04.995Z,64.01
2019-04-05T12:27:04.854Z,64.01
2019-04-05T12:28:07.526Z,64.01
2019-04-05T12:29:04.216Z,63.88
2019-04-05T12:30:04.193Z,63.58
2019-04-05T12:31:04.181Z,63.98
2019-04-05T12:32:04.183Z,63.78
2019-04-05T12:33:14.039Z,63.58
2019-04-05T12:34:05.153Z,62.74
2019-04-05T12:35:04.150Z,63.34
2019-04-05T12:36:04.125Z,63.24
2019-04-05T12:37:04.157Z,62.94
2019-04-05T12:38:06.833Z,62.23
2019-04-05T12:39:07.804Z,62.53
2019-04-05T12:40:05.218Z,61.79
2019-04-05T12:41:04.074Z,62.20
2019-04-05T12:42:04.074Z,61.97
2019-04-05T12:43:04.059Z,60.93
2019-04-05T12:44:04.038Z,59.05
2019-04-05T12:45:04.035Z,56.96
2019-04-05T12:46:04.019Z,57.40
2019-04-05T12:47:04.019Z,56.89
2019-04-05T12:48:04.000Z,56.63
2019-04-05T12:49:03.985Z,55.47
2019-04-05T12:50:03.972Z,53.80
2019-04-05T12:51:05.673Z,52.76
2019-04-05T12:52:03.960Z,52.44